Timeline UpdatesTrip UpdatesNews PostsPvt Posts♥♥Travel TipsAdmin PostsConv PostsFollowed PostsChat RequestsBlog PostsPNR Posts

Disclaimer
Search
 
 
Sat Nov 1, 2014 12:28:58 ISTHomeTrainsΣChainsAtlasPNRForumGalleryNewsFAQTripsMembersLoginFeedback
Latest...
.
Fri Dec 13, 2013 (03:40PM)
⇐ Return Journey: Train# 12834

12833/Ahmedabad- Howrah SF Express

Time-Table HAS CHANGED.
Oct 25 (8:37PM)
Change Departure Station:
Change Arrival Station:
Post a Train Travel TipPost a Train Travel Tip **new
Post a Comment/Question/Picture/VideoPost a Comment/Question/Picture/Video
Pantry/Catering
✓ Pantry Car Avbl
✓ Catering Avbl
RSA - Rake Sharing
Rake/Coach Composition
ENG-SLR-LD-GEN-A2-A1-B2-B1-S13-S12-PC-S11-S10-S9-S8-S7-S6-S5-S4-S3-S2-S1-GEN-SLR-*MILK VAN; Coupling of Milk Van is not regular.
Loco
Loco: SRC WAP 4 ... Entry# 289462
News    PNR    Forum    Time-Table    Availability    Fare Chart    Map    Arr/Dep History    Trips    Gallery    ΣChains    X/O    Timeline    
Travel Time: 11h 42m    14 halts    Distance: 677 km    Avg Speed: 57 km/hr
Type: SuperFast
Zone: SER/South Eastern
Departs @ 01:48 (Avg 23m late)
Platform# ???
SMTWTFS
Naila/NIA 
Arrives @ 13:30 (Avg 14m late)
Platform# 17
SMTWTFS
Kolkata Howrah Junction/HWH 

14 halts. 111 intermediate Stations between Naila and Kolkata Howrah Junction

Show ALL intermediate Stations  Show Old Time-Table

#TrkCodeStation NameX/OArrivesAvgDepartsAvgHaltPFDay#KmSpeedElevZoneAddress
1/==/ADIAhmedabad Junction (12)  -23:55+361-1411.62451mWRAhmedabad, Gujarat
2/==/MANManinagar (2)X  00:03+000:05+02m12-1408.46950mWRAhmadabad, Gujarat
3/==/NDNadiad Junction (4)X  00:42+1100:44+112m12-1366.06237mWRNadiad, Gujarat
4/==/ANNDAnand Junction (6)X  01:02+1101:04+182m12-1347.54944mWRAnand, Gujarat
5/==/BRCVadodara Junction (7)  01:48+1701:55+187m12-1311.88836mWRVadodara 390005, Gujarat
6/==/BHBharuch Junction (5)X  02:43+1402:45+112m42-1241.25919mWRBharuch, Gujarat
7/==/STSurat (4)X  03:45+1403:55+1510m32-1182.03419mWRSurat 395001, Gujarat
8/==/UDNUdhna Junction (3)  04:02+1904:04+222m32-1178.06316mWRUdhna 394210, Gujarat
9%==%BIYBardoli (2)  04:30+3304:32+332m12-1150.85935mWRNear Bardoli Sugar Factory Bardoli, Gujarat
10%==%MIDMadhi (1)X  04:47+3704:49+382m12-1135.95345mWRMadhi, Gujarat
11%==/VYAVyara (2)X  05:06+4005:08+402m22-1121.05590mWRVyara, Gujarat
12/==/NWUNavapur (2)X  05:54+4505:56+562m--2-1079.149124mWRNavapur, Gujarat
13/-=%NDBNandurbar (3)  07:07+4307:15+428m22-1021.246203mWRNandurbar, Maharashtra
14/-=%DDEDondaicha (2)  08:00+2908:02+302m12-986.845163mWRDondaicha, Maharashtra
15%==%SNKSindkheda (1)  08:28+2408:30+242m12-967.453178mWRState Highway 11, Maharashtra
16/==%ANAmalner (2)  09:17+1609:20+163m12-925.862188mWRAmalner, Maharashtra
17%==/DXGDharangaon (2)  09:44+1609:46+172m12-900.936217mWRDharangaon, Maharashtra
18%==%JLJalgaon Junction (4)X  10:38 10:35+1810:40+212 5m12-871.272213mCRJalgaon 425001, Maharashtra
19/==/BSLBhusaval Junction (8)O  11:05 11:00+2811:20 11:10+3015 10m12-847.170208mCRBhusaval 425201, Maharashtra
20/==/MKUMalkapur (2)X  12:06 11:53+3312:08 11:55+342m22-797.273252mCRMalkapur, Maharashtra
21/==/NNNandura (2)  12:28 12:18+3312:30 12:20+322m22-769.392267mCRNandura, Maharashtra
22/==/JMJalamb Junction (3)  12:38 12:28+3512:40 12:30+352m12-757.093259mCRJalamb, Maharashtra
23/==/SEGShegaon (2)X  12:48 12:38+3912:50 12:40+392m22-744.689281mCRShegaon 444203, Maharashtra
24/==/AKAkola Junction (7)  13:15 13:05+4313:20 13:10+435m22-707.580284mCRAkola-444001, Maharashtra
25/==/MZRMurtizapur (3)  13:58 13:38+4414:00 13:40+442m12-670.336303mCRMurtajapur, Maharashtra
26/==/BDBadnera Junction (4)  14:55 14:50+1415:00 14:55+155m22-628.569335mCRBadnera (Amravati) 444701, Maharashtra
27/==/CNDChandur (2)  15:20+2015:22+202m12-599.777331mCRAmravati Distt, Maharashtra
28/==/DMNDhamangaon (2)X  15:35+2015:37+202m22-583.180300mCRDhamangaon, Maharashtra
29/==/PLOPulgaon Junction (3)X  15:52+2215:54+222m12-563.168273mCRPulgaon, Maharashtra
30/==/WRWardha Junction (4)  16:20+2016:23+203m32-533.675289mCRWardha 442001, Maharashtra
31/==/AJNIAjni (3)  17:24+1417:26+152m12-457.78310mCRNagpur 440003, Maharashtra
32/==/NGPNagpur Junction (8)X  17:50+518:00+910m12-454.748314mCRNagpur 440001, Maharashtra
33/==/KPKamptee (3)X  18:18+1918:20+192m--2-440.496290mSECRKamptee, Maharashtra
34/==/BRDBhandara Road (3)X  18:50+2318:52+232m--2-392.477266mSECRState Highway 252 Bhandara District, Maharashtra
35/==/TMRTumsar Road (5)X  19:06+2219:08+222m--2-374.581267mSECRDistt. Bhandara, Maharashtra
36/==/TROTirora (3)  19:23+2519:25+252m--2-354.157282mSECRDist Gondia, Maharashtra
37/==/GGondia Junction (7)X  19:56+1919:58+192m22-324.891316mSECRGondia 441601, Maharashtra
38/==/AGNAmgaon (2)X  20:13+2420:15+242m--2-302.072317mSECRGondia, Maharashtra
39/==/DGGDongargarh (2)X  20:57+2620:59+272m--2-251.586 SECRDongargarh, Chhattisgarh
40/==/RJNRaj Nandgaon (3)X  21:21+2721:23+272m12-220.039313mSECRRajnandgaon, Chhattisgarh
41/==/DURGDurg Junction (6)  22:10+1022:15+145m32-189.549299mSECRPh: 91-788-2322059, Chhattisgarh
42/==/BPHBBhilai Power House (3)X  22:24 22:26+022:26 22:28+02m12-180.662312mSECRBhilai, Chhattisgarh
43/==/RRaipur Junction (6)X  22:55+1623:05+1510m62-152.674297mSECRRaipur, Chhattisgarh
44/==/TLDTilda (3)  23:34 23:36+2323:36 23:38+232m--2-114.487 SECRBanjari Rd, Chhattisgarh
45/==/BYTBhatapara (4)  23:54 23:56+2423:56 23:58+242m--2-88.449270mSECRBanjari Road, Chhattisgarh
46/==/BSPBilaspur Junction (8)X  00:55+1201:10+2015m23-42.278271mSECRBilaspur, Chhattisgarh
47/==/AKTAkaltara (4)  01:31+2401:33+242m--3-14.969284mSECRDist. Janjgir Champa, Chhattisgarh
48/==/NIANaila»X  01:46+2301:48+232m--30.054273mSECRJanjgir, Chhattisgarh
49/==/CPHChampa Junction (3)X  02:00+2402:03+303m--310.985264mSECRNational Highway 200 (07819-245767), Chhattisgarh
50/==/BUABaradwar  02:13 02:14+3202:15 02:16+332m--326.491 SECRJanjgir-Champa, Chhattisgarh
51/==/KHSKharsia  02:36+3802:38+382m--356.685 SECRNational Highway 200, Chhattisgarh
52/==/RIGRaigarh (3)XO  03:02+4003:07+395m--390.690220mSECRRaigarh, Chhattisgarh
53/==/BPHBelpahar (2)  03:41+4803:43+472m--3141.753235mSECRBelpahar, Odisha
54/==/BRJNBrajrajnagarX  03:53+4703:55+462m--3150.611212mSECRBrajrajnagar, Odisha
55/==/JSGJharsuguda Junction (5)X  05:00+705:02+142m23162.281236mSERJharsuguda, Odisha
56/==/BMBBamra (3)  05:29+1505:31+152m--3198.880259mSERBamra PH : 06642-229268, Odisha
57/==/GPRaj Gangpur (3)X  05:57+2205:59+222m23233.454237mSERRaj Ganpur, Odisha
58/==/ROURourkela Junction (5)  06:32+1606:47+1615m13263.275198mSERRourkela, Odisha
59/==/CKPChakradharpur (3)X  08:08+1508:15+157m23364.253235mSERChakradharpur (West Singhbhum), Jharkhand
60/==/TATATatanagar Junction (5)  09:20 09:25+809:35+1015 10m53426.579164mSER91-657-2423026, Jharkhand
61/==/KGPKharagpur Junction (10)  11:17+1711:22+175m63561.67342mSERKharagpur, West Bengal
62/==/SRCKolkata Santragachi Junction (6)  12:50 12:51+1112:52 12:53+92m63669.2127mSERDist: Howrah - 711104, West Bengal
63/==/HWHKolkata Howrah Junction (23)•  13:30+14-173676.6-10mERHowrah 711101, West Bengal
Scroll to Top
Scroll to Bottom